Wetterdaten: Woche 04.01.10 - 10.01.10 (KW1)
Datum Zeit Temp. A. Feuchte A. Luftdruck Regen Wind Richtung Taupunkt Windchill Windben
04.01.2010 00:00 -2,4 C 83 % 1020,5 hPa 0,0 l/m 0,0 km/h N -4,9 C -2,4 C 0,4 km/h
04.01.2010 01:00 -2,5 C 84 % 1020,3 hPa 0,0 l/m 0,0 km/h N -4,8 C -2,5 C 0,0 km/h
04.01.2010 02:00 -2,6 C 85 % 1020,5 hPa 0,0 l/m 0,1 km/h N -4,7 C -2,6 C 1,6 km/h
04.01.2010 03:00 -2,9 C 84 % 1020,4 hPa 0,0 l/m 0,1 km/h N -5,2 C -2,9 C 1,2 km/h
04.01.2010 04:00 -2,7 C 83 % 1020,1 hPa 0,0 l/m 0,0 km/h N -5,2 C -2,7 C 0,0 km/h
04.01.2010 05:00 -2,8 C 80 % 1019,8 hPa 0,0 l/m 0,2 km/h N -5,7 C -2,8 C 3,2 km/h
04.01.2010 06:00 -3,2 C 79 % 1019,9 hPa 0,0 l/m 0,3 km/h N -6,3 C -3,2 C 4,4 km/h
04.01.2010 07:00 -2,8 C 80 % 1019,9 hPa 0,0 l/m 0,9 km/h S -5,9 C -2,8 C 6,0 km/h
04.01.2010 08:00 -3,0 C 80 % 1019,8 hPa 0,0 l/m 0,3 km/h N -6,0 C -3,0 C 4,0 km/h
04.01.2010 09:00 -2,8 C 81 % 1019,9 hPa 0,0 l/m 1,4 km/h O-SO -5,7 C -2,8 C 9,3 km/h
04.01.2010 10:00 -2,7 C 80 % 1019,7 hPa 0,0 l/m 2,0 km/h S -5,8 C -2,7 C 8,0 km/h
04.01.2010 11:00 -2,1 C 79 % 1018,8 hPa 0,0 l/m 1,3 km/h SO -5,2 C -2,1 C 6,4 km/h
04.01.2010 12:00 -0,8 C 75 % 1017,6 hPa 0,0 l/m 3,1 km/h S-SO -4,8 C -0,8 C 10,9 km/h
04.01.2010 13:00 -0,5 C 70 % 1016,4 hPa 0,0 l/m 3,7 km/h O -5,2 C -0,5 C 12,1 km/h
04.01.2010 14:00 -0,8 C 72 % 1015,8 hPa 0,0 l/m 4,0 km/h S -5,3 C -0,8 C 12,1 km/h
04.01.2010 15:00 -1,1 C 71 % 1015,6 hPa 0,0 l/m 1,6 km/h O -5,6 C -1,1 C 8,0 km/h
04.01.2010 16:00 -1,7 C 73 % 1015,4 hPa 0,0 l/m 0,7 km/h O-SO -5,9 C -1,7 C 4,8 km/h
04.01.2010 17:00 -2,5 C 74 % 1015,3 hPa 0,0 l/m 0,1 km/h N -6,5 C -2,5 C 2,0 km/h
04.01.2010 18:00 -3,9 C 75 % 1015,0 hPa 0,0 l/m 0,0 km/h N -7,8 C -3,9 C 0,0 km/h
04.01.2010 19:00 -5,4 C 79 % 1015,1 hPa 0,0 l/m 0,0 km/h N -8,4 C -5,4 C 0,4 km/h
04.01.2010 20:00 -6,0 C 82 % 1014,9 hPa 0,0 l/m 0,0 km/h N -8,6 C -6,0 C 0,8 km/h
04.01.2010 21:00 -6,6 C 84 % 1014,9 hPa 0,0 l/m 0,0 km/h N -8,9 C -6,6 C 1,2 km/h
04.01.2010 22:00 -6,9 C 85 % 1014,9 hPa 0,0 l/m 0,2 km/h N -8,9 C -6,9 C 2,4 km/h
04.01.2010 23:00 -6,4 C 86 % 1014,8 hPa 0,0 l/m 0,9 km/h S-SW -8,3 C -6,4 C 5,2 km/h
05.01.2010 00:00 -5,6 C 86 % 1014,6 hPa 0,0 l/m 1,1 km/h SW -7,6 C -5,6 C 5,6 km/h
05.01.2010 01:00 -4,9 C 84 % 1014,3 hPa 0,0 l/m 2,2 km/h W-SW -7,2 C -4,9 C 7,6 km/h
05.01.2010 02:00 -4,4 C 83 % 1014,3 hPa 0,0 l/m 1,0 km/h SW -6,9 C -4,4 C 4,8 km/h
05.01.2010 03:00 -4,2 C 82 % 1014,2 hPa 0,0 l/m 0,6 km/h N -6,9 C -4,2 C 4,8 km/h
05.01.2010 04:00 -4,0 C 82 % 1013,9 hPa 0,0 l/m 0,2 km/h N -6,6 C -4,0 C 2,4 km/h
05.01.2010 05:00 -3,8 C 82 % 1013,5 hPa 0,0 l/m 0,0 km/h N -6,4 C -3,8 C 0,8 km/h
05.01.2010 06:00 -3,7 C 82 % 1013,4 hPa 0,0 l/m 0,0 km/h N -6,3 C -3,7 C 0,8 km/h
05.01.2010 07:00 -3,5 C 84 % 1013,2 hPa 0,0 l/m 2,1 km/h O-SO -5,9 C -3,5 C 7,6 km/h
05.01.2010 08:00 -3,8 C 85 % 1013,2 hPa 0,0 l/m 1,7 km/h O -5,9 C -3,8 C 7,2 km/h
05.01.2010 09:00 -3,8 C 87 % 1013,1 hPa 0,0 l/m 2,6 km/h O-SO -5,7 C -3,8 C 7,6 km/h
05.01.2010 10:00 -3,8 C 88 % 1012,7 hPa 0,0 l/m 3,9 km/h O-SO -5,5 C -3,8 C 10,1 km/h
05.01.2010 11:00 -3,7 C 89 % 1011,9 hPa 0,0 l/m 4,5 km/h O-SO -5,2 C -3,7 C 10,9 km/h
05.01.2010 12:00 -3,6 C 90 % 1010,7 hPa 0,0 l/m 4,3 km/h O-SO -5,0 C -3,6 C 12,1 km/h
05.01.2010 13:00 -3,3 C 91 % 1010,0 hPa 0,0 l/m 4,7 km/h SO -4,6 C -3,3 C 12,9 km/h
05.01.2010 14:00 -3,3 C 91 % 1009,5 hPa 0,0 l/m 4,6 km/h O-SO -4,6 C -3,3 C 11,3 km/h
05.01.2010 15:00 -3,3 C 91 % 1009,1 hPa 0,0 l/m 3,5 km/h S-SO -4,5 C -3,3 C 10,1 km/h
05.01.2010 16:00 -3,1 C 91 % 1008,7 hPa 0,0 l/m 2,5 km/h O -4,3 C -3,1 C 9,2 km/h
05.01.2010 17:00 -3,1 C 91 % 1008,3 hPa 0,0 l/m 2,9 km/h O-SO -4,3 C -3,1 C 10,5 km/h
05.01.2010 18:00 -2,9 C 91 % 1008,3 hPa 0,0 l/m 1,3 km/h O-SO -4,2 C -2,9 C 6,8 km/h
05.01.2010 19:00 -2,8 C 90 % 1007,9 hPa 0,0 l/m 1,4 km/h O -4,2 C -2,8 C 6,4 km/h
05.01.2010 20:00 -2,8 C 90 % 1007,1 hPa 0,0 l/m 1,5 km/h SO -4,2 C -2,8 C 8,5 km/h
05.01.2010 21:00 -2,8 C 89 % 1006,5 hPa 0,0 l/m 2,1 km/h SO -4,3 C -2,8 C 8,4 km/h
05.01.2010 22:00 -2,8 C 89 % 1006,1 hPa 0,0 l/m 1,8 km/h SO -4,4 C -2,8 C 7,2 km/h
05.01.2010 23:00 -2,9 C 89 % 1005,5 hPa 0,0 l/m 1,6 km/h S-SO -4,5 C -2,9 C 9,7 km/h
06.01.2010 00:00 -2,9 C 89 % 1004,4 hPa 0,0 l/m 0,7 km/h S -4,5 C -2,9 C 5,6 km/h
06.01.2010 01:00 -3,0 C 90 % 1003,5 hPa 0,0 l/m 1,6 km/h O-SO -4,5 C -3,0 C 6,0 km/h
06.01.2010 02:00 -3,1 C 90 % 1003,1 hPa 0,0 l/m 1,3 km/h O-SO -4,5 C -3,1 C 6,0 km/h
06.01.2010 03:00 -3,1 C 90 % 1002,5 hPa 0,0 l/m 1,0 km/h N -4,5 C -3,1 C 5,2 km/h
06.01.2010 04:00 -3,2 C 90 % 1001,7 hPa 0,0 l/m 0,3 km/h N -4,6 C -3,2 C 3,6 km/h
06.01.2010 05:00 -3,1 C 90 % 1001,0 hPa 0,0 l/m 0,2 km/h N -4,5 C -3,1 C 3,2 km/h
06.01.2010 06:00 -3,1 C 91 % 1001,0 hPa 0,0 l/m 0,0 km/h N -4,4 C -3,1 C 0,4 km/h
06.01.2010 07:00 -3,1 C 91 % 1001,3 hPa 0,0 l/m 0,0 km/h N -4,4 C -3,1 C 0,0 km/h
06.01.2010 08:00 -3,0 C 91 % 1001,5 hPa 0,0 l/m 0,0 km/h N -4,2 C -3,0 C 0,0 km/h
06.01.2010 09:00 -2,5 C 91 % 1001,8 hPa 0,0 l/m 0,2 km/h N -3,8 C -2,5 C 1,6 km/h
06.01.2010 10:00 -2,0 C 91 % 1002,0 hPa 0,0 l/m 1,7 km/h NW -3,3 C -2,0 C 5,2 km/h
06.01.2010 11:00 -1,7 C 89 % 1001,8 hPa 0,0 l/m 4,5 km/h W-NW -3,2 C -1,7 C 12,5 km/h
06.01.2010 12:00 -1,4 C 88 % 1001,5 hPa 0,0 l/m 3,9 km/h NW -3,2 C -1,4 C 10,4 km/h
06.01.2010 13:00 -1,2 C 85 % 1001,5 hPa 0,0 l/m 4,8 km/h N-NW -3,4 C -1,2 C 10,1 km/h
06.01.2010 14:00 -1,0 C 83 % 1001,7 hPa 0,0 l/m 4,3 km/h NW -3,5 C -1,0 C 10,4 km/h
06.01.2010 15:00 -1,0 C 82 % 1002,1 hPa 0,0 l/m 5,3 km/h N -3,6 C -1,1 C 12,5 km/h
06.01.2010 16:00 -1,3 C 83 % 1002,5 hPa 0,0 l/m 2,1 km/h W-NW -3,9 C -1,3 C 5,6 km/h
06.01.2010 17:00 -1,7 C 83 % 1002,8 hPa 0,0 l/m 1,3 km/h W -4,2 C -1,7 C 4,8 km/h
06.01.2010 18:00 -2,1 C 84 % 1003,3 hPa 0,0 l/m 0,2 km/h N -4,5 C -2,1 C 2,0 km/h
06.01.2010 19:00 -1,7 C 85 % 1004,0 hPa 0,0 l/m 1,2 km/h W-NW -4,0 C -1,7 C 5,6 km/h
06.01.2010 20:00 -1,3 C 83 % 1004,5 hPa 0,0 l/m 3,5 km/h W-SW -3,8 C -1,3 C 11,7 km/h
06.01.2010 21:00 -1,4 C 82 % 1005,0 hPa 0,0 l/m 1,4 km/h S-SW -4,2 C -1,4 C 7,6 km/h
06.01.2010 22:00 -1,9 C 82 % 1005,5 hPa 0,0 l/m 0,1 km/h N -4,6 C -1,9 C 2,0 km/h
06.01.2010 23:00 -2,4 C 83 % 1005,8 hPa 0,0 l/m 0,4 km/h N -4,9 C -2,4 C 2,4 km/h
07.01.2010 00:00 -3,9 C 82 % 1006,2 hPa 0,0 l/m 0,1 km/h N -6,5 C -3,9 C 2,0 km/h
07.01.2010 01:00 -5,1 C 84 % 1006,8 hPa 0,0 l/m 0,0 km/h N -7,4 C -5,1 C 0,0 km/h
07.01.2010 02:00 -5,7 C 85 % 1007,4 hPa 0,0 l/m 0,0 km/h N -7,8 C -5,7 C 0,0 km/h
07.01.2010 03:00 -5,1 C 88 % 1007,3 hPa 0,0 l/m 0,0 km/h N -6,8 C -5,1 C 0,8 km/h
07.01.2010 04:00 -4,6 C 88 % 1007,6 hPa 0,0 l/m 0,1 km/h N -6,3 C -4,6 C 2,0 km/h
07.01.2010 05:00 -3,7 C 89 % 1008,3 hPa 0,0 l/m 0,5 km/h N-NO -5,3 C -3,7 C 4,0 km/h
07.01.2010 06:00 -2,8 C 89 % 1008,7 hPa 0,0 l/m 0,4 km/h N -4,4 C -2,8 C 3,6 km/h
07.01.2010 07:00 -2,8 C 87 % 1009,3 hPa 0,0 l/m 0,2 km/h N -4,6 C -2,8 C 2,8 km/h
07.01.2010 08:00 -2,3 C 86 % 1009,8 hPa 0,0 l/m 0,1 km/h N -4,3 C -2,3 C 2,4 km/h
07.01.2010 09:00 -1,9 C 86 % 1010,0 hPa 0,0 l/m 0,6 km/h N-NW -4,0 C -1,9 C 3,2 km/h
07.01.2010 10:00 -0,9 C 85 % 1011,1 hPa 0,0 l/m 0,1 km/h N -3,1 C -0,9 C 1,6 km/h
07.01.2010 11:00 -0,2 C 82 % 1011,4 hPa 0,0 l/m 0,3 km/h N -2,9 C -0,2 C 3,2 km/h
07.01.2010 12:00 0,3 C 77 % 1011,6 hPa 0,3 l/m 2,6 km/h W-SW -3,2 C 0,3 C 8,0 km/h
07.01.2010 13:00 0,5 C 76 % 1012,3 hPa 0,3 l/m 1,3 km/h NW -3,2 C 0,5 C 4,8 km/h
07.01.2010 14:00 0,8 C 76 % 1012,7 hPa 0,3 l/m 0,4 km/h N -2,9 C 0,8 C 2,4 km/h
07.01.2010 15:00 0,2 C 77 % 1013,1 hPa 0,3 l/m 0,6 km/h S-SW -3,4 C 0,2 C 5,6 km/h
07.01.2010 16:00 -1,5 C 78 % 1013,4 hPa 0,0 l/m 0,5 km/h N -4,8 C -1,5 C 4,4 km/h
07.01.2010 17:00 -4,2 C 79 % 1014,3 hPa 0,0 l/m 0,0 km/h N -7,3 C -4,2 C 0,4 km/h
07.01.2010 18:00 -6,1 C 83 % 1015,0 hPa 0,0 l/m 0,0 km/h N -8,5 C -6,1 C 0,0 km/h
07.01.2010 19:00 -6,2 C 85 % 1015,6 hPa 0,0 l/m 0,0 km/h N -8,2 C -6,2 C 0,0 km/h
07.01.2010 20:00 -6,3 C 87 % 1016,0 hPa 0,0 l/m 0,0 km/h N -8,1 C -6,3 C 0,0 km/h
07.01.2010 21:00 -6,0 C 88 % 1016,0 hPa 0,0 l/m 0,0 km/h N -7,7 C -6,0 C 0,0 km/h
07.01.2010 22:00 -5,8 C 88 % 1015,9 hPa 0,0 l/m 0,0 km/h N -7,4 C -5,8 C 0,4 km/h
07.01.2010 23:00 -5,1 C 89 % 1015,6 hPa 0,0 l/m 0,0 km/h N -6,6 C -5,1 C 0,0 km/h
08.01.2010 00:00 -4,2 C 90 % 1015,3 hPa 0,0 l/m 0,1 km/h N -5,6 C -4,2 C 1,6 km/h
08.01.2010 01:00 -3,4 C 90 % 1015,2 hPa 0,0 l/m 0,0 km/h N -4,7 C -3,4 C 0,8 km/h
08.01.2010 02:00 -3,1 C 90 % 1015,6 hPa 0,0 l/m 0,3 km/h O -4,5 C -3,1 C 2,8 km/h
08.01.2010 03:00 -2,8 C 91 % 1015,6 hPa 0,0 l/m 3,2 km/h O-SO -4,1 C -2,8 C 8,0 km/h
08.01.2010 04:00 -3,0 C 90 % 1015,6 hPa 0,0 l/m 3,0 km/h O-SO -4,4 C -3,0 C 8,4 km/h
08.01.2010 05:00 -3,4 C 90 % 1015,7 hPa 0,0 l/m 1,9 km/h O -4,8 C -3,4 C 6,8 km/h
08.01.2010 06:00 -3,4 C 90 % 1015,8 hPa 0,0 l/m 0,1 km/h N -4,7 C -3,4 C 3,2 km/h
08.01.2010 07:00 -3,1 C 91 % 1015,6 hPa 0,0 l/m 0,3 km/h N -4,4 C -3,1 C 2,8 km/h
08.01.2010 08:00 -2,8 C 91 % 1015,2 hPa 0,0 l/m 0,9 km/h O -4,0 C -2,8 C 4,4 km/h
08.01.2010 09:00 -2,6 C 91 % 1014,9 hPa 0,0 l/m 1,0 km/h O-SO -3,8 C -2,6 C 6,0 km/h
08.01.2010 10:00 -2,3 C 91 % 1014,7 hPa 0,0 l/m 0,2 km/h O-SO -3,5 C -2,3 C 1,6 km/h
08.01.2010 11:00 -1,8 C 91 % 1013,6 hPa 0,0 l/m 0,9 km/h O-SO -3,1 C -1,8 C 5,2 km/h
08.01.2010 12:00 -1,5 C 91 % 1012,7 hPa 0,0 l/m 0,0 km/h N -2,8 C -1,5 C 1,2 km/h
08.01.2010 13:00 -1,3 C 91 % 1011,5 hPa 0,0 l/m 0,1 km/h N -2,6 C -1,3 C 2,0 km/h
08.01.2010 14:00 -0,9 C 91 % 1010,7 hPa 0,0 l/m 0,0 km/h N -2,2 C -0,9 C 0,0 km/h
08.01.2010 15:00 -0,8 C 91 % 1009,8 hPa 0,0 l/m 0,0 km/h N -2,1 C -0,8 C 0,8 km/h
08.01.2010 16:00 -0,7 C 91 % 1009,1 hPa 0,0 l/m 0,0 km/h N -2,0 C -0,7 C 1,2 km/h
08.01.2010 17:00 -0,6 C 91 % 1008,4 hPa 0,0 l/m 0,0 km/h N -1,9 C -0,6 C 0,0 km/h
08.01.2010 18:00 -0,4 C 92 % 1007,8 hPa 0,0 l/m 0,3 km/h N -1,6 C -0,4 C 1,6 km/h
08.01.2010 19:00 -0,3 C 92 % 1007,3 hPa 0,0 l/m 0,2 km/h N -1,4 C -0,3 C 1,6 km/h
08.01.2010 20:00 -0,2 C 92 % 1006,8 hPa 0,0 l/m 0,0 km/h N -1,3 C -0,2 C 0,4 km/h
08.01.2010 21:00 -0,1 C 92 % 1006,2 hPa 0,0 l/m 0,0 km/h N -1,2 C -0,1 C 0,8 km/h
08.01.2010 22:00 -0,0 C 92 % 1005,7 hPa 0,0 l/m 0,0 km/h N -1,2 C -0,0 C 0,0 km/h
08.01.2010 23:00 0,2 C 92 % 1005,3 hPa 0,0 l/m 0,1 km/h N -1,0 C 0,2 C 2,0 km/h
09.01.2010 00:00 0,3 C 92 % 1004,8 hPa 0,0 l/m 0,1 km/h N -0,8 C 0,3 C 2,4 km/h
09.01.2010 01:00 0,4 C 92 % 1004,4 hPa 0,0 l/m 0,0 km/h N -0,8 C 0,4 C 0,8 km/h
09.01.2010 02:00 0,4 C 93 % 1004,0 hPa 0,0 l/m 0,1 km/h N -0,6 C 0,4 C 1,6 km/h
09.01.2010 03:00 0,4 C 93 % 1003,9 hPa 0,0 l/m 0,6 km/h W-SW -0,6 C 0,4 C 3,6 km/h
09.01.2010 04:00 0,2 C 92 % 1003,9 hPa 0,0 l/m 1,8 km/h W-SW -1,0 C 0,2 C 7,2 km/h
09.01.2010 05:00 -0,1 C 92 % 1004,3 hPa 0,0 l/m 3,6 km/h SW -1,2 C -0,1 C 10,1 km/h
09.01.2010 06:00 -0,2 C 92 % 1004,4 hPa 0,0 l/m 3,5 km/h W-NW -1,3 C -0,2 C 9,7 km/h
09.01.2010 07:00 -0,2 C 91 % 1005,0 hPa 0,0 l/m 3,7 km/h W-SW -1,4 C -0,2 C 9,3 km/h
09.01.2010 08:00 -0,1 C 90 % 1005,3 hPa 0,0 l/m 4,2 km/h W -1,5 C -0,1 C 9,7 km/h
09.01.2010 09:00 -0,1 C 89 % 1005,6 hPa 0,0 l/m 4,0 km/h NW -1,6 C -0,1 C 10,5 km/h
09.01.2010 10:00 -0,2 C 89 % 1005,8 hPa 0,0 l/m 5,5 km/h W -1,8 C -0,2 C 14,9 km/h
09.01.2010 11:00 -0,2 C 89 % 1005,7 hPa 0,0 l/m 4,0 km/h NW -1,9 C -0,2 C 10,5 km/h
09.01.2010 12:00 -0,3 C 88 % 1005,3 hPa 0,3 l/m 2,6 km/h W-SW -2,0 C -0,3 C 8,0 km/h
09.01.2010 13:00 -0,3 C 88 % 1004,6 hPa 0,0 l/m 4,3 km/h NW -2,0 C -0,3 C 9,3 km/h
09.01.2010 14:00 -0,3 C 88 % 1004,5 hPa 0,0 l/m 3,0 km/h NW -2,0 C -0,3 C 7,2 km/h
09.01.2010 15:00 -0,3 C 89 % 1004,0 hPa 0,0 l/m 3,3 km/h NW -1,9 C -0,3 C 8,4 km/h
09.01.2010 16:00 -0,1 C 90 % 1003,9 hPa 0,0 l/m 1,1 km/h W-SW -1,6 C -0,1 C 5,6 km/h
09.01.2010 17:00 -0,1 C 90 % 1004,1 hPa 0,0 l/m 0,7 km/h W-SW -1,5 C -0,1 C 4,4 km/h
09.01.2010 18:00 -0,1 C 90 % 1003,8 hPa 0,0 l/m 1,4 km/h SW -1,5 C -0,1 C 6,8 km/h
09.01.2010 19:00 -0,1 C 91 % 1004,0 hPa 0,0 l/m 0,5 km/h N -1,4 C -0,1 C 3,2 km/h
09.01.2010 20:00 0,1 C 91 % 1003,6 hPa 0,0 l/m 0,3 km/h N -1,2 C 0,1 C 3,2 km/h
09.01.2010 21:00 0,3 C 91 % 1003,9 hPa 0,0 l/m 0,1 km/h N -1,0 C 0,3 C 2,0 km/h
09.01.2010 22:00 0,4 C 91 % 1003,6 hPa 0,0 l/m 0,3 km/h N -0,9 C 0,4 C 3,2 km/h
09.01.2010 23:00 0,4 C 91 % 1003,5 hPa 0,0 l/m 0,3 km/h N -0,9 C 0,4 C 2,0 km/h
10.01.2010 00:00 0,4 C 91 % 1003,8 hPa 0,0 l/m 0,1 km/h N -0,9 C 0,4 C 1,6 km/h
10.01.2010 01:00 0,5 C 92 % 1003,7 hPa 0,0 l/m 1,3 km/h W-SW -0,7 C 0,5 C 7,6 km/h
10.01.2010 02:00 0,6 C 92 % 1003,8 hPa 0,0 l/m 2,4 km/h W -0,5 C 0,6 C 8,0 km/h
10.01.2010 03:00 0,6 C 91 % 1004,1 hPa 0,0 l/m 3,0 km/h NW -0,7 C 0,6 C 10,8 km/h
10.01.2010 04:00 0,7 C 90 % 1004,3 hPa 0,0 l/m 3,9 km/h W -0,8 C 0,7 C 10,5 km/h
10.01.2010 05:00 0,7 C 88 % 1004,8 hPa 0,0 l/m 2,4 km/h W-SW -1,1 C 0,7 C 8,9 km/h
10.01.2010 06:00 0,6 C 86 % 1005,2 hPa 0,0 l/m 3,6 km/h W-NW -1,4 C 0,6 C 14,9 km/h
10.01.2010 07:00 0,4 C 85 % 1005,7 hPa 0,0 l/m 4,5 km/h W-NW -1,8 C 0,4 C 14,5 km/h
10.01.2010 08:00 0,4 C 84 % 1006,2 hPa 0,0 l/m 4,8 km/h SW -1,9 C 0,4 C 14,9 km/h
10.01.2010 09:00 0,5 C 84 % 1006,9 hPa 0,0 l/m 3,8 km/h W -1,9 C 0,5 C 13,3 km/h
10.01.2010 10:00 0,8 C 83 % 1007,9 hPa 0,0 l/m 4,6 km/h W -1,9 C 0,8 C 16,5 km/h
10.01.2010 11:00 0,9 C 81 % 1008,2 hPa 0,0 l/m 5,9 km/h SW -2,1 C 0,8 C 20,5 km/h
10.01.2010 12:00 1,0 C 80 % 1008,4 hPa 0,0 l/m 6,1 km/h W -2,1 C 0,6 C 18,5 km/h
10.01.2010 13:00 0,9 C 79 % 1008,4 hPa 0,0 l/m 9,4 km/h N-NO -2,4 C -1,9 C 26,5 km/h
10.01.2010 14:00 1,0 C 77 % 1008,8 hPa 0,0 l/m 9,2 km/h W -2,6 C -1,7 C 24,1 km/h
10.01.2010 15:00 0,8 C 77 % 1009,1 hPa 0,0 l/m 9,3 km/h W-SW -2,7 C -1,9 C 24,9 km/h
10.01.2010 16:00 0,6 C 77 % 1009,5 hPa 0,0 l/m 9,9 km/h W -3,0 C -2,6 C 28,6 km/h
10.01.2010 17:00 0,3 C 74 % 1010,3 hPa 0,0 l/m 12,4 km/h W-NW -3,8 C -4,9 C 33,0 km/h
10.01.2010 18:00 0,1 C 74 % 1011,3 hPa 0,0 l/m 9,5 km/h W -3,9 C -2,9 C 25,3 km/h
10.01.2010 19:00 -0,2 C 75 % 1012,0 hPa 0,0 l/m 9,8 km/h W -4,0 C -3,4 C 27,4 km/h
10.01.2010 20:00 -0,3 C 75 % 1012,3 hPa 0,0 l/m 11,4 km/h SW -4,2 C -4,8 C 31,8 km/h
10.01.2010 21:00 -0,3 C 74 % 1012,7 hPa 0,0 l/m 8,1 km/h W -4,4 C -2,1 C 22,5 km/h
10.01.2010 22:00 -0,4 C 74 % 1013,1 hPa 0,0 l/m 4,5 km/h SW -4,5 C -0,6 C 17,7 km/h
10.01.2010 23:00 -0,4 C 75 % 1013,3 hPa 0,0 l/m 2,8 km/h NW -4,4 C -0,4 C 14,1 km/h
Min-Datum _ 04.01.10 04.01.10 06.01.10 - 04.01.10 - 04.01.10 04.01.10 04.01.10
_ Min-Zeit 22:15 13:30 05:45 - 00:00 - 22:00 22:00 00:00
Minimum _ -6,9 C 69 % 1000,8 hPa - 0,0 km/h - -9,1 C -6,9 C 0,0 km/h
Max-Datum _ 10.01.10 09.01.10 04.01.10 07.01.10 10.01.10 - 09.01.10 10.01.10 10.01.10
_ Max-Zeit 12:15 02:30 00:00 12:45 20:30 - 02:30 12:45 17:00
Maximum _ 1,1 C 93 % 1020,5 hPa 0,3 l/m 13,6 km/h
SW
- -0,5 C 1,1 C 40,2 km/h
W
Durchschnitt _ -1,9 C 86 % 1009,6 hPa #1,3 l/m 1,9 km/h O-SO -4,0 C -2,1 C 6,7 km/h